createdAt,value
2023-03-04T00:00:32.268Z,98096.19
2023-03-04T00:03:20.134Z,98098.72
2023-03-04T00:05:47.473Z,98099.19
2023-03-04T00:08:15.180Z,98091.53
2023-03-04T00:10:42.686Z,98089.88
2023-03-04T00:13:10.278Z,98077.16
2023-03-04T00:15:37.515Z,98078.44
2023-03-04T00:18:05.140Z,98077.84
2023-03-04T00:20:32.520Z,98074.84
2023-03-04T00:23:00.100Z,98067.34
2023-03-04T00:25:27.382Z,98066.41
2023-03-04T00:27:54.939Z,98070.72
2023-03-04T00:30:22.198Z,98049.41
2023-03-04T00:32:49.948Z,98056.88
2023-03-04T00:35:17.444Z,98052.88
2023-03-04T00:37:44.977Z,98046.00
2023-03-04T00:40:12.952Z,98054.56
2023-03-04T00:42:40.510Z,98052.03
2023-03-04T00:45:09.283Z,98048.75
2023-03-04T00:47:36.887Z,98042.66
2023-03-04T00:50:05.024Z,98044.31
2023-03-04T00:52:32.979Z,98039.16
2023-03-04T00:55:00.253Z,98031.66
2023-03-04T00:57:27.803Z,98023.81
2023-03-04T00:59:55.062Z,98011.91
2023-03-04T01:02:22.601Z,98017.84
2023-03-04T01:04:49.920Z,98009.28
2023-03-04T01:07:17.416Z,98003.53
2023-03-04T01:09:44.822Z,97994.59
2023-03-04T01:12:12.507Z,97994.22
2023-03-04T01:14:39.802Z,97983.13
2023-03-04T01:17:07.319Z,97986.75
2023-03-04T01:19:34.593Z,97981.16
2023-03-04T01:22:02.159Z,97975.56
2023-03-04T01:24:30.216Z,97971.13
2023-03-04T01:26:57.758Z,97972.00
2023-03-04T01:29:24.968Z,97976.84
2023-03-04T01:31:52.477Z,97962.25
2023-03-04T01:34:19.747Z,97964.50
2023-03-04T01:36:47.310Z,97958.84
2023-03-04T01:39:14.546Z,97946.94
2023-03-04T01:41:42.270Z,97957.25
2023-03-04T01:44:11.204Z,97955.31
2023-03-04T01:46:44.004Z,97965.91
2023-03-04T01:49:17.199Z,97960.72
2023-03-04T01:51:50.579Z,97945.13
2023-03-04T01:54:18.424Z,97939.47
2023-03-04T01:56:48.871Z,97932.47
2023-03-04T01:59:23.997Z,97942.88
2023-03-04T02:01:56.033Z,97948.50
2023-03-04T02:04:34.520Z,97936.19
2023-03-04T02:07:04.652Z,97928.34
2023-03-04T02:09:34.348Z,97917.00
2023-03-04T02:12:02.510Z,97925.81
2023-03-04T02:14:29.881Z,97923.78
2023-03-04T02:16:57.646Z,97923.91
2023-03-04T02:20:02.650Z,97919.09
2023-03-04T02:22:30.653Z,97912.47
2023-03-04T02:25:15.967Z,97906.25
2023-03-04T02:27:43.537Z,97908.97
2023-03-04T02:30:20.290Z,97901.22
2023-03-04T02:32:47.992Z,97894.28
2023-03-04T02:35:18.888Z,97903.59
2023-03-04T02:37:46.799Z,97886.50
2023-03-04T02:40:29.518Z,97889.25
2023-03-04T02:43:01.217Z,97885.09
2023-03-04T02:45:36.451Z,97875.75
2023-03-04T02:48:04.779Z,97877.09
2023-03-04T02:50:42.982Z,97873.66
2023-03-04T02:53:11.013Z,97866.13
2023-03-04T02:55:38.518Z,97864.72
2023-03-04T02:58:06.114Z,97885.19
2023-03-04T03:00:33.640Z,97869.53
2023-03-04T03:03:01.298Z,97859.06
2023-03-04T03:05:32.548Z,97855.91
2023-03-04T03:08:00.331Z,97866.31
2023-03-04T03:10:28.321Z,97865.28
2023-03-04T03:12:55.977Z,97866.81
2023-03-04T03:15:23.331Z,97851.31
2023-03-04T03:17:51.016Z,97853.97
2023-03-04T03:20:18.460Z,97859.34
2023-03-04T03:22:46.133Z,97865.16
2023-03-04T03:25:15.573Z,97864.19
2023-03-04T03:27:43.455Z,97871.44
2023-03-04T03:30:14.160Z,97872.72
2023-03-04T03:32:41.739Z,97873.69
2023-03-04T03:35:09.567Z,97871.31
2023-03-04T03:37:37.130Z,97869.25
2023-03-04T03:40:05.582Z,97869.41
2023-03-04T03:42:33.220Z,97872.97
2023-03-04T03:45:00.471Z,97872.38
2023-03-04T03:47:28.072Z,97860.00
2023-03-04T03:49:55.386Z,97860.31
2023-03-04T03:52:22.988Z,97858.44
2023-03-04T03:54:50.374Z,97858.97
2023-03-04T03:57:17.946Z,97855.75
2023-03-04T03:59:45.308Z,97853.88
2023-03-04T04:02:12.918Z,97857.28
2023-03-04T04:04:40.330Z,97852.03
2023-03-04T04:07:07.837Z,97853.28
2023-03-04T04:09:35.136Z,97857.28
2023-03-04T04:12:06.304Z,97861.41
2023-03-04T04:14:34.190Z,97858.75
2023-03-04T04:17:01.767Z,97866.34
2023-03-04T04:19:29.080Z,97865.31
2023-03-04T04:21:56.662Z,97854.09
2023-03-04T04:24:24.168Z,97858.44
2023-03-04T04:26:51.846Z,97863.09
2023-03-04T04:29:19.721Z,97855.31
2023-03-04T04:31:47.318Z,97862.06
2023-03-04T04:34:14.710Z,97852.19
2023-03-04T04:36:42.495Z,97843.88
2023-03-04T04:39:09.855Z,97847.78
2023-03-04T04:41:41.103Z,97843.22
2023-03-04T04:44:10.723Z,97844.97
2023-03-04T04:46:39.609Z,97837.56
2023-03-04T04:49:08.018Z,97841.44
2023-03-04T04:51:38.377Z,97851.53
2023-03-04T04:54:06.822Z,97845.00
2023-03-04T04:56:34.620Z,97838.13
2023-03-04T04:59:05.090Z,97848.19
2023-03-04T05:01:33.028Z,97846.94
2023-03-04T05:04:00.453Z,97847.00
2023-03-04T05:06:28.311Z,97847.78
2023-03-04T05:08:55.910Z,97844.00
2023-03-04T05:11:23.663Z,97846.78
2023-03-04T05:13:51.613Z,97843.41
2023-03-04T05:16:19.510Z,97837.56
2023-03-04T05:18:47.003Z,97832.25
2023-03-04T05:21:14.926Z,97848.69
2023-03-04T05:23:44.071Z,97843.22
2023-03-04T05:26:17.828Z,97848.06
2023-03-04T05:28:45.938Z,97843.09
2023-03-04T05:31:13.530Z,97841.38
2023-03-04T05:33:41.118Z,97836.22
2023-03-04T05:36:09.268Z,97835.34
2023-03-04T05:38:37.068Z,97832.50
2023-03-04T05:41:07.741Z,97829.94
2023-03-04T05:43:36.350Z,97825.69
2023-03-04T05:46:04.961Z,97821.91
2023-03-04T05:48:32.316Z,97817.97
2023-03-04T05:51:01.823Z,97814.25
2023-03-04T05:53:29.493Z,97814.25
2023-03-04T05:55:59.363Z,97817.72
2023-03-04T05:58:26.709Z,97821.81
2023-03-04T06:00:54.477Z,97823.44
2023-03-04T06:03:25.442Z,97829.03
2023-03-04T06:05:54.399Z,97829.47
2023-03-04T06:08:21.712Z,97823.13
2023-03-04T06:10:54.395Z,97827.09
2023-03-04T06:13:22.606Z,97825.38
2023-03-04T06:15:56.341Z,97820.22
2023-03-04T06:18:26.117Z,97830.03
2023-03-04T06:21:00.209Z,97832.50
2023-03-04T06:23:28.329Z,97816.03
2023-03-04T06:25:58.994Z,97827.81
2023-03-04T06:28:26.859Z,97819.00
2023-03-04T06:30:56.332Z,97825.81
2023-03-04T06:33:23.925Z,97814.50
2023-03-04T06:35:56.415Z,97814.94
2023-03-04T06:38:25.415Z,97825.28
2023-03-04T06:40:54.312Z,97828.63
2023-03-04T06:43:23.377Z,97825.13
2023-03-04T06:45:50.961Z,97835.16
2023-03-04T06:48:18.274Z,97841.28
2023-03-04T06:50:45.847Z,97853.19
2023-03-04T06:53:13.206Z,97837.09
2023-03-04T06:55:40.852Z,97846.13
2023-03-04T06:58:08.154Z,97841.41
2023-03-04T07:00:35.740Z,97852.47
2023-03-04T07:03:03.256Z,97855.03
2023-03-04T07:05:30.972Z,97857.63
2023-03-04T07:07:58.162Z,97873.94
2023-03-04T07:10:25.788Z,97858.59
2023-03-04T07:12:53.077Z,97859.47
2023-03-04T07:15:20.839Z,97860.72
2023-03-04T07:17:48.101Z,97863.28
2023-03-04T07:20:15.796Z,97859.63
2023-03-04T07:22:43.052Z,97860.97
2023-03-04T07:25:10.950Z,97865.66
2023-03-04T07:27:41.330Z,97861.41
2023-03-04T07:30:10.142Z,97863.16
2023-03-04T07:32:37.536Z,97865.78
2023-03-04T07:35:06.026Z,97861.19
2023-03-04T07:37:33.582Z,97864.66
2023-03-04T07:40:01.172Z,97865.56
2023-03-04T07:42:28.547Z,97865.09
2023-03-04T07:44:56.129Z,97861.41
2023-03-04T07:47:23.392Z,97861.13
2023-03-04T07:49:51.089Z,97856.94
2023-03-04T07:52:18.411Z,97865.38
2023-03-04T07:54:45.988Z,97869.13
2023-03-04T07:57:13.332Z,97863.50
2023-03-04T07:59:41.012Z,97872.28
2023-03-04T08:02:10.572Z,97882.34
2023-03-04T08:04:38.276Z,97876.13
2023-03-04T08:07:05.612Z,97870.38
2023-03-04T08:09:33.191Z,97876.19
2023-03-04T08:12:00.487Z,97876.75
2023-03-04T08:14:28.080Z,97879.72
2023-03-04T08:16:55.419Z,97883.13
2023-03-04T08:19:25.025Z,97886.59
2023-03-04T08:21:53.186Z,97880.59
2023-03-04T08:24:20.819Z,97885.69
2023-03-04T08:26:50.645Z,97886.72
2023-03-04T08:29:22.613Z,97879.22
2023-03-04T08:31:52.656Z,97893.31
2023-03-04T08:34:25.333Z,97889.16
2023-03-04T08:36:52.788Z,97889.44
2023-03-04T08:39:20.917Z,97878.59
2023-03-04T08:41:49.282Z,97876.94
2023-03-04T08:44:17.100Z,97870.81
2023-03-04T08:46:44.417Z,97875.69
2023-03-04T08:49:13.108Z,97878.66
2023-03-04T08:51:40.843Z,97872.81
2023-03-04T08:54:08.513Z,97866.78
2023-03-04T08:56:35.903Z,97868.84
2023-03-04T08:59:03.960Z,97871.19
2023-03-04T09:01:31.358Z,97862.00
2023-03-04T09:03:59.044Z,97858.75
2023-03-04T09:06:26.565Z,97860.06
2023-03-04T09:08:54.253Z,97857.69
2023-03-04T09:11:21.724Z,97875.53
2023-03-04T09:13:51.364Z,97859.78
2023-03-04T09:16:18.964Z,97872.91
2023-03-04T09:18:46.607Z,97864.41
2023-03-04T09:21:14.157Z,97868.28
2023-03-04T09:23:42.894Z,97862.06
2023-03-04T09:26:25.151Z,97865.47
2023-03-04T09:28:57.258Z,97864.03
2023-03-04T09:31:26.942Z,97862.97
2023-03-04T09:33:56.199Z,97859.53
2023-03-04T09:36:24.618Z,97862.00
2023-03-04T09:38:52.756Z,97862.59
2023-03-04T09:41:29.206Z,97864.88
2023-03-04T09:43:58.466Z,97883.25
2023-03-04T09:46:41.659Z,97862.78
2023-03-04T09:49:14.170Z,97868.28
2023-03-04T09:51:51.987Z,97861.22
2023-03-04T09:54:46.668Z,97865.72
2023-03-04T09:57:42.991Z,97858.06
2023-03-04T10:00:25.928Z,97866.91
2023-03-04T10:03:24.801Z,97855.34
2023-03-04T10:06:07.457Z,97857.31
2023-03-04T10:08:50.180Z,97851.03
2023-03-04T10:11:42.864Z,97848.63
2023-03-04T10:14:22.557Z,97849.72
2023-03-04T10:17:19.711Z,97850.59
2023-03-04T10:20:06.146Z,97838.81
2023-03-04T10:22:52.103Z,97843.47
2023-03-04T10:25:30.405Z,97828.06
2023-03-04T10:28:33.707Z,97834.66
2023-03-04T10:31:38.820Z,97829.63
2023-03-04T10:34:07.235Z,97821.84
2023-03-04T10:37:02.988Z,97818.47
2023-03-04T10:39:47.166Z,97821.50
2023-03-04T10:42:14.520Z,97816.47
2023-03-04T10:44:54.330Z,97829.88
2023-03-04T10:47:29.472Z,97812.47
2023-03-04T10:50:03.700Z,97809.75
2023-03-04T10:52:50.016Z,97799.56
2023-03-04T10:55:21.742Z,97810.75
2023-03-04T10:57:55.718Z,97787.06
2023-03-04T11:00:35.231Z,97797.69
2023-03-04T11:03:29.694Z,97806.25
2023-03-04T11:06:22.239Z,97795.50
2023-03-04T11:08:59.101Z,97791.03
2023-03-04T11:11:40.164Z,97787.38
2023-03-04T11:14:29.547Z,97778.44
2023-03-04T11:17:01.578Z,97780.63
2023-03-04T11:19:39.161Z,97790.94
2023-03-04T11:22:07.192Z,97783.00
2023-03-04T11:24:38.172Z,97773.84
2023-03-04T11:27:24.325Z,97789.38
2023-03-04T11:30:13.571Z,97791.47
2023-03-04T11:32:48.947Z,97770.56
2023-03-04T11:35:31.160Z,97777.84
2023-03-04T11:38:17.084Z,97759.94
2023-03-04T11:40:49.379Z,97760.63
2023-03-04T11:43:32.809Z,97754.91
2023-03-04T11:46:56.486Z,97749.84
2023-03-04T11:50:03.569Z,97734.75
2023-03-04T11:52:36.558Z,97748.53
2023-03-04T11:55:38.904Z,97757.34
2023-03-04T11:58:55.438Z,97744.94
2023-03-04T12:01:45.437Z,97744.28
2023-03-04T12:04:27.444Z,97748.88
2023-03-04T12:07:50.393Z,97741.06
2023-03-04T12:10:53.159Z,97732.84
2023-03-04T12:13:35.539Z,97729.13
2023-03-04T12:16:50.864Z,97740.09
2023-03-04T12:19:47.897Z,97737.84
2023-03-04T12:22:48.965Z,97730.72
2023-03-04T12:25:22.361Z,97733.38
2023-03-04T12:28:23.105Z,97733.09
2023-03-04T12:31:17.596Z,97736.03
2023-03-04T12:34:04.307Z,97736.47
2023-03-04T12:36:59.003Z,97735.59
2023-03-04T12:39:39.720Z,97723.34
2023-03-04T12:42:55.774Z,97721.34
2023-03-04T12:45:59.510Z,97724.03
2023-03-04T12:48:44.201Z,97714.88
2023-03-04T12:51:37.348Z,97708.53
2023-03-04T12:54:24.086Z,97708.63
2023-03-04T12:57:11.972Z,97704.28
2023-03-04T13:00:20.396Z,97692.47
2023-03-04T13:03:19.224Z,97697.56
2023-03-04T13:05:57.399Z,97695.88
2023-03-04T13:09:01.499Z,97699.59
2023-03-04T13:11:30.109Z,97692.06
2023-03-04T13:14:17.493Z,97691.56
2023-03-04T13:16:49.416Z,97681.13
2023-03-04T13:19:49.008Z,97696.03
2023-03-04T13:22:48.049Z,97681.81
2023-03-04T13:25:50.269Z,97684.47
2023-03-04T13:28:25.624Z,97684.31
2023-03-04T13:30:56.009Z,97685.59
2023-03-04T13:33:23.618Z,97676.19
2023-03-04T13:36:05.414Z,97672.22
2023-03-04T13:38:38.834Z,97676.44
2023-03-04T13:41:28.400Z,97681.50
2023-03-04T13:43:58.443Z,97678.63
2023-03-04T13:46:27.642Z,97674.59
2023-03-04T13:49:02.317Z,97674.59
2023-03-04T13:51:46.290Z,97671.84
2023-03-04T13:54:19.847Z,97671.84
2023-03-04T13:56:50.935Z,97663.81
2023-03-04T13:59:44.325Z,97669.81
2023-03-04T14:02:15.049Z,97668.94
2023-03-04T14:04:46.042Z,97661.47
2023-03-04T14:07:26.482Z,97668.88
2023-03-04T14:10:12.648Z,97662.75
2023-03-04T14:12:59.148Z,97661.06
2023-03-04T14:15:32.207Z,97654.22
2023-03-04T14:18:05.466Z,97663.13
2023-03-04T14:20:42.785Z,97657.25
2023-03-04T14:23:42.719Z,97658.84
2023-03-04T14:26:15.901Z,97656.94
2023-03-04T14:28:52.051Z,97652.78
2023-03-04T14:31:27.657Z,97655.00
2023-03-04T14:34:02.546Z,97654.75
2023-03-04T14:36:35.900Z,97650.78
2023-03-04T14:39:07.364Z,97655.13
2023-03-04T14:41:39.560Z,97662.97
2023-03-04T14:44:38.148Z,97659.84
2023-03-04T14:47:19.586Z,97675.72
2023-03-04T14:49:47.656Z,97667.53
2023-03-04T14:52:43.522Z,97666.81
2023-03-04T14:55:27.112Z,97663.63
2023-03-04T14:58:21.852Z,97662.78
2023-03-04T15:00:49.955Z,97663.50
2023-03-04T15:03:30.563Z,97653.31
2023-03-04T15:06:16.439Z,97652.53
2023-03-04T15:08:45.494Z,97648.75
2023-03-04T15:11:29.898Z,97645.09
2023-03-04T15:13:59.891Z,97647.97
2023-03-04T15:16:49.776Z,97648.81
2023-03-04T15:19:30.258Z,97650.38
2023-03-04T15:22:08.239Z,97640.44
2023-03-04T15:24:36.130Z,97647.34
2023-03-04T15:27:07.803Z,97641.59
2023-03-04T15:29:35.591Z,97635.97
2023-03-04T15:32:02.903Z,97639.53
2023-03-04T15:34:30.984Z,97641.88
2023-03-04T15:37:00.212Z,97636.13
2023-03-04T15:39:28.137Z,97633.53
2023-03-04T15:41:56.020Z,97634.09
2023-03-04T15:44:23.664Z,97638.38
2023-03-04T15:46:50.928Z,97640.72
2023-03-04T15:49:18.490Z,97642.53
2023-03-04T15:51:45.834Z,97637.00
2023-03-04T15:54:14.117Z,97636.56
2023-03-04T15:56:41.619Z,97632.00
2023-03-04T15:59:17.465Z,97634.88
2023-03-04T16:01:45.193Z,97642.50
2023-03-04T16:04:17.219Z,97630.72
2023-03-04T16:06:48.385Z,97638.56
2023-03-04T16:09:21.252Z,97632.75
2023-03-04T16:11:48.639Z,97632.00
2023-03-04T16:14:17.158Z,97639.41
2023-03-04T16:16:46.592Z,97635.38
2023-03-04T16:19:15.251Z,97626.28
2023-03-04T16:21:42.710Z,97635.16
2023-03-04T16:24:20.003Z,97636.00
2023-03-04T16:26:47.955Z,97642.47
2023-03-04T16:29:16.883Z,97641.72
2023-03-04T16:31:44.449Z,97640.81
2023-03-04T16:34:12.382Z,97646.28
2023-03-04T16:36:40.905Z,97637.06
2023-03-04T16:39:22.981Z,97636.94
2023-03-04T16:41:51.763Z,97652.63
2023-03-04T16:44:19.679Z,97650.78
2023-03-04T16:46:47.158Z,97641.31
2023-03-04T16:49:14.709Z,97654.47
2023-03-04T16:51:49.984Z,97667.72
2023-03-04T16:54:28.016Z,97660.97
2023-03-04T16:56:55.390Z,97650.72
2023-03-04T16:59:23.323Z,97650.09
2023-03-04T17:01:52.957Z,97648.81
2023-03-04T17:04:21.622Z,97647.72
2023-03-04T17:06:49.056Z,97644.66
2023-03-04T17:09:16.727Z,97642.75
2023-03-04T17:11:44.093Z,97653.31
2023-03-04T17:14:11.808Z,97641.31
2023-03-04T17:16:40.315Z,97645.31
2023-03-04T17:19:07.913Z,97645.56
2023-03-04T17:21:35.260Z,97648.66
2023-03-04T17:24:03.545Z,97643.22
2023-03-04T17:26:31.995Z,97647.47
2023-03-04T17:28:59.701Z,97645.31
2023-03-04T17:31:27.025Z,97640.50
2023-03-04T17:33:54.701Z,97649.56
2023-03-04T17:36:22.107Z,97646.50
2023-03-04T17:38:52.021Z,97644.13
2023-03-04T17:41:19.880Z,97654.47
2023-03-04T17:43:51.642Z,97656.13
2023-03-04T17:46:23.657Z,97651.66
2023-03-04T17:48:57.640Z,97652.16
2023-03-04T17:51:38.065Z,97657.81
2023-03-04T17:54:08.694Z,97657.81
2023-03-04T17:56:39.588Z,97654.22
2023-03-04T17:59:12.666Z,97646.44
2023-03-04T18:01:40.709Z,97666.44
2023-03-04T18:04:08.937Z,97661.44
2023-03-04T18:06:36.570Z,97659.69
2023-03-04T18:09:05.520Z,97655.50
2023-03-04T18:11:36.256Z,97651.81
2023-03-04T18:14:04.531Z,97663.88
2023-03-04T18:16:33.090Z,97651.22
2023-03-04T18:19:02.353Z,97656.38
2023-03-04T18:21:30.688Z,97665.75
2023-03-04T18:23:59.239Z,97669.28
2023-03-04T18:26:27.759Z,97660.56
2023-03-04T18:28:57.124Z,97663.91
2023-03-04T18:31:31.633Z,97653.22
2023-03-04T18:34:01.977Z,97654.81
2023-03-04T18:36:29.828Z,97655.75
2023-03-04T18:38:59.533Z,97635.69
2023-03-04T18:41:28.467Z,97651.72
2023-03-04T18:43:56.508Z,97648.28
2023-03-04T18:46:31.226Z,97648.22
2023-03-04T18:49:09.016Z,97642.53
2023-03-04T18:51:36.768Z,97659.00
2023-03-04T18:54:04.982Z,97664.84
2023-03-04T18:56:51.578Z,97652.41
2023-03-04T18:59:44.677Z,97653.75
2023-03-04T19:02:36.219Z,97655.06
2023-03-04T19:05:14.309Z,97656.94
2023-03-04T19:07:41.803Z,97667.38
2023-03-04T19:10:12.318Z,97657.72
2023-03-04T19:12:39.814Z,97667.75
2023-03-04T19:15:10.396Z,97673.28
2023-03-04T19:17:40.016Z,97663.78
2023-03-04T19:20:10.045Z,97656.75
2023-03-04T19:22:37.693Z,97668.19
2023-03-04T19:25:06.022Z,97664.88
2023-03-04T19:27:34.221Z,97653.00
2023-03-04T19:30:02.469Z,97660.69
2023-03-04T19:32:29.950Z,97648.75
2023-03-04T19:34:57.759Z,97658.94
2023-03-04T19:37:25.215Z,97653.84
2023-03-04T19:39:54.562Z,97660.75
2023-03-04T19:42:23.647Z,97652.09
2023-03-04T19:44:51.840Z,97658.81
2023-03-04T19:47:19.399Z,97664.63
2023-03-04T19:49:47.215Z,97662.69
2023-03-04T19:52:14.516Z,97662.88
2023-03-04T19:54:42.162Z,97663.63
2023-03-04T19:57:09.480Z,97652.19
2023-03-04T19:59:37.190Z,97658.94
2023-03-04T20:02:04.626Z,97655.91
2023-03-04T20:04:32.533Z,97660.63
2023-03-04T20:06:59.964Z,97664.25
2023-03-04T20:09:27.720Z,97664.34
2023-03-04T20:11:58.875Z,97664.78
2023-03-04T20:14:28.179Z,97664.16
2023-03-04T20:17:02.693Z,97666.63
2023-03-04T20:19:32.256Z,97662.28
2023-03-04T20:22:00.287Z,97658.88
2023-03-04T20:24:28.096Z,97668.03
2023-03-04T20:26:55.784Z,97664.25
2023-03-04T20:29:23.705Z,97664.34
2023-03-04T20:31:51.012Z,97661.59
2023-03-04T20:34:18.798Z,97651.94
2023-03-04T20:36:46.230Z,97658.03
2023-03-04T20:39:28.689Z,97658.84
2023-03-04T20:42:00.260Z,97648.66
2023-03-04T20:44:28.476Z,97660.44
2023-03-04T20:46:56.300Z,97663.19
2023-03-04T20:49:28.422Z,97659.63
2023-03-04T20:52:06.542Z,97651.88
2023-03-04T20:54:39.300Z,97649.97
2023-03-04T20:57:08.180Z,97654.84
2023-03-04T20:59:38.612Z,97661.84
2023-03-04T21:02:08.825Z,97643.84
2023-03-04T21:04:36.572Z,97643.44
2023-03-04T21:07:04.364Z,97649.84
2023-03-04T21:09:32.080Z,97651.41
2023-03-04T21:12:05.774Z,97658.41
2023-03-04T21:14:33.578Z,97652.25
2023-03-04T21:17:04.194Z,97654.75
2023-03-04T21:19:42.398Z,97659.78
2023-03-04T21:22:16.399Z,97653.31
2023-03-04T21:24:45.660Z,97660.69
2023-03-04T21:27:16.641Z,97653.00
2023-03-04T21:29:44.484Z,97646.53
2023-03-04T21:32:24.896Z,97676.41
2023-03-04T21:34:55.329Z,97670.50
2023-03-04T21:37:25.439Z,97668.34
2023-03-04T21:39:54.448Z,97672.44
2023-03-04T21:42:22.114Z,97678.25
2023-03-04T21:44:51.473Z,97681.19
2023-03-04T21:47:21.511Z,97668.19
2023-03-04T21:49:49.333Z,97669.25
2023-03-04T21:52:19.200Z,97672.44
2023-03-04T21:54:47.973Z,97676.63
2023-03-04T21:57:15.958Z,97679.19
2023-03-04T21:59:43.529Z,97675.31
2023-03-04T22:02:17.576Z,97675.75
2023-03-04T22:04:45.730Z,97664.03
2023-03-04T22:07:14.127Z,97663.19
2023-03-04T22:09:41.720Z,97668.56
2023-03-04T22:12:09.479Z,97660.53
2023-03-04T22:14:37.135Z,97663.09
2023-03-04T22:17:04.646Z,97655.38
2023-03-04T22:19:33.450Z,97660.28
2023-03-04T22:22:00.757Z,97662.13
2023-03-04T22:24:28.948Z,97666.25
2023-03-04T22:26:57.752Z,97666.28
2023-03-04T22:29:25.546Z,97659.25
2023-03-04T22:31:53.004Z,97662.41
2023-03-04T22:34:20.869Z,97664.84
2023-03-04T22:36:49.467Z,97664.31
2023-03-04T22:39:19.478Z,97668.16
2023-03-04T22:41:47.626Z,97661.66
2023-03-04T22:44:15.428Z,97668.78
2023-03-04T22:46:43.724Z,97668.91
2023-03-04T22:49:13.884Z,97672.50
2023-03-04T22:51:43.535Z,97668.31
2023-03-04T22:54:16.920Z,97672.41
2023-03-04T22:56:44.936Z,97669.84
2023-03-04T22:59:13.734Z,97680.16
2023-03-04T23:01:41.889Z,97675.63
2023-03-04T23:04:09.497Z,97671.41
2023-03-04T23:06:37.836Z,97677.28
2023-03-04T23:09:05.958Z,97677.13
2023-03-04T23:11:38.944Z,97678.34
2023-03-04T23:14:08.552Z,97680.31
2023-03-04T23:16:42.640Z,97677.88
2023-03-04T23:19:16.637Z,97690.56
2023-03-04T23:21:44.639Z,97679.50
2023-03-04T23:24:13.513Z,97679.28
2023-03-04T23:26:42.578Z,97689.34
2023-03-04T23:29:16.474Z,97685.16
2023-03-04T23:31:44.546Z,97690.03
2023-03-04T23:34:12.930Z,97683.75
2023-03-04T23:36:40.946Z,97688.00
2023-03-04T23:39:09.200Z,97682.78
2023-03-04T23:41:36.614Z,97681.72
2023-03-04T23:44:04.626Z,97691.19
2023-03-04T23:46:32.358Z,97691.56
2023-03-04T23:49:00.525Z,97690.88
2023-03-04T23:51:30.276Z,97697.69
2023-03-04T23:53:58.924Z,97700.28
2023-03-04T23:56:31.419Z,97695.34
2023-03-04T23:59:00.704Z,97697.41
